• Join FlightAware (Why Join?)
  • Login
  • US Flag 
12:34AM EDT


 

Airport Tracker/Info


-or-


 

Live Flight TrackerFlight Track Log ✈ BAW18A ✈ 11-May-2013 ✈ KJFK - EGLL / LHR

Flight Track Log - Related Links

Times and Time Zones

All times are in EDT time to prevent confusion due to time zone crossing. See the BAW18A flight status page for this flight to view local times or setup timezone preferences in your user account.

Time Position Orientation Groundspeed Altitude Reporting Facility
EDT Latitude Longitude Course Direction KTS MPH feet Rate Location/Type
11:58PM 40.6150 -73.7900 211° Southwest 165 190 1,400  Level FlightAware
11:58PM 40.6080 -73.7950 208° Southwest 173 199 1,600 720 Climbing FlightAware
11:58PM 40.5830 -73.8100 204° Southwest 214 246 1,900 600 Climbing FlightAware
11:58PM 40.5710 -73.8130 191° South 238 274 2,000 780 Climbing FlightAware
11:59PM 40.5500 -73.8030 160° South 271 312 2,300 1,440 Climbing FlightAware
11:59PM 40.5378 -73.7839 130° Southeast 281 323 2,800 2,160 Climbing FlightAware ADS-B
12:00AM 40.5450 -73.7200 82° East 288 331 4,300 2,160 Climbing FlightAware
12:00AM 40.5620 -73.7030 37° Northeast 289 333 4,900 2,100 Climbing FlightAware
12:00AM 40.5960 -73.6750 32° Northeast 301 346 5,900 2,040 Climbing FlightAware
12:01AM 40.6240 -73.6470 37° Northeast 305 351 6,800 2,040 Climbing FlightAware
12:01AM 40.6610 -73.6190 30° Northeast 309 356 7,800 2,040 Climbing FlightAware
12:02AM 40.6940 -73.5980 26° Northeast 314 361 8,700 2,160 Climbing FlightAware
12:02AM 40.7310 -73.5730 27° Northeast 317 365 9,800 1,680 Climbing FlightAware
12:03AM 40.7850 -73.5370 27° Northeast 342 394 10,700 1,080 Climbing FlightAware
12:04AM 40.8530 -73.4920 27° Northeast 379 436 11,400 1,500 Climbing FlightAware
12:04AM 40.9180 -73.4490 27° Northeast 391 450 12,900 2,040 Climbing FlightAware
12:05AM 40.9910 -73.4000 27° Northeast 406 467 14,300 1,860 Climbing FlightAware
12:06AM 41.0530 -73.3400 36° Northeast 419 482 15,600 1,980 Climbing FlightAware
12:06AM 41.1090 -73.2710 43° Northeast 422 486 17,000 1,920 Climbing FlightAware
12:07AM 41.1790 -73.1910 41° Northeast 432 497 18,400 1,140 Climbing FlightAware
12:08AM 41.2550 -73.1080 39° Northeast 435 501 18,900 300 Climbing FlightAware
12:09AM 41.3080 -73.0510 39° Northeast 435 501 18,900 1,920 Level FlightAware
12:09AM 41.3950 -72.9570 39° Northeast 451 519 21,700 1,920 Climbing FlightAware
12:10AM 41.4520 -72.9000 37° Northeast 451 519 21,700  Level FlightAware
12:11AM 41.5090 -72.8430 37° Northeast 451 519 21,700  Level FlightAware
12:11AM 41.5650 -72.7860 37° Northeast 451 519 21,700  Level FlightAware
12:12AM 41.6220 -72.7290 37° Northeast 451 519 21,700  Level FlightAware
12:13AM 41.6790 -72.6710 37° Northeast 451 519 21,700 2,700 Level FlightAware
12:14AM 41.8200 -72.5290 37° Northeast 27,800 3,720 Climbing FlightAware
12:15AM 41.9440 -72.4020 37° Northeast 513 590 28,300 1,260 Climbing FlightAware
12:15AM 41.9430 -72.4040 236° Southwest 29,100 1,680 Climbing FlightAware
12:15AM 42.0320 -72.3120 38° Northeast 525 604 29,600 1,020 Climbing FlightAware
12:16AM 42.1208 -72.2217 38° Northeast 515 593 30,500 1,440 Climbing Boston Center
12:17AM 42.2372 -72.1008 38° Northeast 520 598 32,300 1,200 Climbing Boston Center
12:18AM 42.3558 -71.9794 37° Northeast 520 598 32,900 600 Climbing Boston Center
12:19AM 42.4739 -71.8547 38° Northeast 526 605 33,500 780 Climbing Boston Center
12:20AM 42.5942 -71.7267 38° Northeast 531 611 34,500 960 Climbing Boston Center
12:21AM 42.7161 -71.6008 37° Northeast 542 624 35,500 1,020 Climbing Boston Center
12:22AM 42.8525 -71.4631 37° Northeast 556 640 36,600 720 Climbing Boston Center
12:23AM 42.9722 -71.3333 38° Northeast 544 626 37,000 60 Climbing Boston Center
12:28AM 43.5970 -70.6540 38° Northeast 551 634 37,000  Level FlightAware
12:29AM 43.7050 -70.5350 39° Northeast 552 635 37,000  Level FlightAware
12:30AM 43.7850 -70.4470 38° Northeast 553 636 37,000  Level FlightAware
12:31AM 43.8520 -70.3730 39° Northeast 554 638 37,000  Level FlightAware
12:31AM 43.9580 -70.2550 39° Northeast 554 638 37,000  Level FlightAware
12:32AM 44.0340 -70.1700 39° Northeast 555 639 37,000  Level FlightAware
12:33AM 44.1250 -70.0680 39° Northeast 555 639 37,000  Level FlightAware
12:33AM 44.2050 -69.9780 39° Northeast 557 641 37,000  Level FlightAware
12:34AM 44.2930 -69.8790 39° Northeast 556 640 37,000  Level FlightAware
12:35AM 44.3860 -69.7730 39° Northeast 558 642 37,000  Level FlightAware
12:36AM 44.4800 -69.6670 39° Northeast 563 648 37,000  Level FlightAware
12:37AM 44.5760 -69.5570 39° Northeast 564 649 37,000  Level FlightAware
12:37AM 44.6570 -69.4640 39° Northeast 567 652 37,000  Level FlightAware
12:38AM 44.7380 -69.3710 39° Northeast 564 649 37,000  Level FlightAware
12:39AM 44.8300 -69.2650 39° Northeast 559 643 37,000  Level FlightAware
12:39AM 44.9110 -69.1700 40° Northeast 558 642 37,000  Level FlightAware
12:40AM 44.9980 -69.0690 39° Northeast 558 642 37,000  Level FlightAware
12:41AM 45.0760 -68.9770 40° Northeast 556 640 37,000  Level FlightAware
12:41AM 45.1570 -68.8830 39° Northeast 556 640 37,000  Level FlightAware
12:42AM 45.2430 -68.7810 40° Northeast 555 639 37,000  Level FlightAware
12:43AM 45.3250 -68.6840 40° Northeast 555 639 37,000  Level FlightAware
12:44AM 45.4130 -68.5800 40° Northeast 553 636 37,000  Level FlightAware
12:44AM 45.4680 -68.5140 40° Northeast 552 635 37,000  Level FlightAware
12:45AM 45.5660 -68.3960 40° Northeast 555 639 37,000  Level FlightAware
12:46AM 45.6450 -68.3020 40° Northeast 556 640 37,000  Level FlightAware
12:46AM 45.7120 -68.2200 41° Northeast 555 639 37,000  Level FlightAware
12:47AM 45.8030 -68.1110 40° Northeast 553 636 37,000  Level FlightAware
12:48AM 45.9390 -67.9460 40° Northeast 548 631 37,000  Level FlightAware
12:49AM 46.0680 -67.7860 41° Northeast 537 618 37,000  Level FlightAware
12:50AM 46.1670 -67.6660 40° Northeast 546 628 37,000  Level FlightAware
12:51AM 46.2280 -67.5900 41° Northeast 545 627 37,000  Level FlightAware
12:51AM 46.3070 -67.4940 40° Northeast 545 627 37,000  Level FlightAware
12:52AM 46.3720 -67.4140 40° Northeast 545 627 37,000  Level FlightAware
12:53AM 46.4540 -67.3140 40° Northeast 545 627 37,000  Level FlightAware
12:54AM 46.5200 -67.2340 40° Northeast 545 627 37,000  Level FlightAware
12:54AM 46.5860 -67.1540 40° Northeast 545 627 37,000  Level FlightAware
12:55AM 46.6510 -67.0740 40° Northeast 545 627 37,000  Level FlightAware
12:56AM 46.7170 -66.9930 40° Northeast 545 627 37,000  Level FlightAware
12:56AM 46.7830 -66.9130 40° Northeast 545 627 37,000  Level FlightAware
12:57AM 46.8480 -66.8320 40° Northeast 545 627 37,000  Level FlightAware
12:58AM 46.9300 -66.7320 40° Northeast 545 627 37,000  Level FlightAware
12:58AM 46.9960 -66.6510 40° Northeast 545 627 37,000  Level FlightAware
12:59AM 47.0620 -66.5700 40° Northeast 545 627 37,000  Level FlightAware
01:00AM 47.1270 -66.4890 40° Northeast 545 627 37,000  Level FlightAware
01:01AM 47.2100 -66.3880 40° Northeast 545 627 37,000  Level FlightAware
01:01AM 47.4000 -66.1000 40° Northeast 520 598 37,000  Level Gander Center
01:02AM 47.4333 -66.0500 45° Northeast 530 610 37,000  Level Gander Center
01:02AM 47.5167 -65.9167 47° Northeast 520 598 37,000  Level Moncton Center
01:03AM 47.6167 -65.7667 45° Northeast 520 598 37,000  Level Moncton Center
01:04AM 47.7500 -65.6167 37° Northeast 520 598 37,000  Level Moncton Center
01:07AM 47.9504 -65.3458 42° Northeast  Level FlightAware Approximate
01:10AM 48.2833 -64.8667 43° Northeast 530 610 37,000  Level Gander Center
01:10AM 48.3833 -64.7167 45° Northeast 530 610 37,000  Level Moncton Center
01:11AM 48.5000 -64.5667 40° Northeast 530 610 37,000  Level Moncton Center
01:12AM 48.6000 -64.4167 45° Northeast 530 610 37,000  Level Moncton Center
01:13AM 48.7167 -64.2667 40° Northeast 540 621 37,000  Level Moncton Center
01:14AM 48.6524 -64.3731 43° Northeast  Level FlightAware Approximate
01:14AM 48.8167 -64.1167 45° Northeast 540 621 37,000  Level Moncton Center
01:15AM 48.7520 -64.2318 43° Northeast  Level FlightAware Approximate
01:15AM 48.9333 -63.9333 46° Northeast 540 621 37,000  Level Moncton Center
01:16AM 49.0500 -63.7833 40° Northeast 550 633 37,000  Level Moncton Center
01:17AM 49.1500 -63.6333 44° Northeast 550 633 37,000  Level Moncton Center
01:18AM 49.2667 -63.4667 43° Northeast 550 633 37,000  Level Moncton Center
01:19AM 49.3667 -63.3167 44° Northeast 550 633 37,000  Level Moncton Center
01:20AM 49.5000 -63.1333 42° Northeast 550 633 37,000  Level Moncton Center
01:21AM 49.6000 -62.9833 44° Northeast 530 610 37,000  Level Moncton Center
01:22AM 49.7000 -62.8167 47° Northeast 530 610 37,000  Level Moncton Center
01:23AM 49.8000 -62.6667 44° Northeast 530 610 37,000  Level Moncton Center
01:24AM 49.9333 -62.5000 39° Northeast 540 621 37,000  Level Moncton Center
01:25AM 50.0167 -62.3333 52° Northeast 510 587 37,000  Level Moncton Center
01:26AM 50.1167 -62.1833 44° Northeast 530 610 37,000  Level Moncton Center
01:27AM 50.2333 -62.0167 42° Northeast 530 610 37,000  Level Moncton Center
01:28AM 50.3167 -61.8833 46° Northeast 510 587 37,000  Level Moncton Center
01:29AM 50.4500 -61.6833 44° Northeast 560 644 37,000  Level Moncton Center
01:30AM 50.5500 -61.5333 44° Northeast 530 610 37,000  Level Moncton Center
01:31AM 50.6500 -61.3667 47° Northeast 540 621 37,000  Level Moncton Center
01:32AM 50.7500 -61.2000 46° Northeast 540 621 37,000  Level Moncton Center
01:33AM 50.8667 -61.0333 42° Northeast 550 633 37,000  Level Moncton Center
01:34AM 50.9833 -60.8333 47° Northeast 550 633 37,000  Level Moncton Center
01:35AM 51.0667 -60.6667 51° Northeast 550 633 37,000  Level Moncton Center
01:36AM 51.1667 -60.5000 46° Northeast 540 621 37,000 240 Level Moncton Center
01:37AM 51.2833 -60.3000 47° Northeast 550 633 37,500 480 Climbing Moncton Center
01:38AM 51.3667 -60.1333 51° Northeast 550 633 38,000 240 Climbing Moncton Center
01:39AM 51.4833 -59.9333 47° Northeast 550 633 38,000  Level Moncton Center
01:40AM 51.5833 -59.7667 46° Northeast 550 633 38,000  Level Moncton Center
01:41AM 51.6667 -59.6167 48° Northeast 540 621 38,000  Level Gander Center
01:42AM 51.7667 -59.4167 51° Northeast 540 621 38,000  Level Gander Center
01:43AM 51.8000 -59.3667 43° Northeast 540 621 38,000  Level Gander Center
01:44AM 51.8667 -59.1667 62° Northeast 530 610 38,000  Level Gander Center
01:44AM 51.9667 -59.0167 43° Northeast 530 610 38,000  Level Moncton Center
01:45AM 52.0333 -58.8500 57° Northeast 530 610 38,000  Level Moncton Center
01:46AM 52.1500 -58.6333 49° Northeast 530 610 38,000  Level Moncton Center
01:47AM 52.2333 -58.4667 51° Northeast 530 610 38,000  Level Gander Center
01:48AM 52.2667 -58.4333 31° Northeast 530 610 38,000  Level Gander Center
01:49AM 52.3333 -58.2500 59° Northeast 530 610 38,000  Level Gander Center
01:50AM 52.4333 -58.0500 51° Northeast 530 610 38,000  Level Gander Center
01:51AM 52.5333 -57.8667 48° Northeast 530 610 38,000  Level Gander Center
01:51AM 52.6000 -57.7000 57° Northeast 530 610 38,000  Level Moncton Center
01:52AM 52.7167 -57.4833 48° Northeast 530 610 38,000  Level Moncton Center
01:53AM 52.8000 -57.3167 50° Northeast 540 621 38,000  Level Moncton Center
01:54AM 52.8833 -57.1000 57° Northeast 540 621 38,000  Level Moncton Center
01:55AM 52.9833 -56.9167 48° Northeast 540 621 38,000 240 Level Moncton Center
01:56AM 53.0667 -56.7167 55° Northeast 540 621 38,500  Climbing Moncton Center
01:57AM 53.1500 -56.5000 57° Northeast 530 610 38,000 -240 Descending Moncton Center
01:59AM 53.2667 -56.2833 48° Northeast 540 621 38,000 -60 Level Gander Center
01:59AM 53.3500 -56.1000 53° Northeast 540 621 37,900  Descending Moncton Center
02:00AM 53.4167 -55.9167 59° Northeast 530 610 38,000  Climbing Moncton Center
02:01AM 53.5167 -55.7000 52° Northeast 540 621 38,000  Level Moncton Center
02:02AM 53.6000 -55.5167 53° Northeast 540 621 38,000  Level Moncton Center
02:03AM 53.7000 -55.3167 50° Northeast 530 610 38,000  Level Moncton Center
02:04AM 53.7833 -55.1000 57° Northeast 540 621 38,000  Level Moncton Center
02:05AM 53.8667 -54.9167 52° Northeast 540 621 38,000  Level Moncton Center
02:06AM 53.9167 -54.6500 72° East 540 621 38,000  Level Moncton Center
02:07AM 53.9500 -54.4167 76° East 540 621 38,000  Level Moncton Center
02:08AM 54.0167 -54.2000 62° Northeast 540 621 38,000  Level Moncton Center
02:09AM 54.0667 -54.0167 65° Northeast 540 621 38,000  Level Gander Center
02:10AM 54.1000 -53.9167 60° Northeast 540 621 38,000  Level Gander Center
02:11AM 54.1500 -53.6833 70° East 540 621 38,000  Level Gander Center
02:12AM 54.2167 -53.4333 65° Northeast 540 621 38,000  Level Gander Center
02:13AM 54.2667 -53.2000 70° East 540 621 38,000  Level Gander Center
02:14AM 54.3167 -52.9667 70° East 540 621 38,000  Level Gander Center
02:14AM 54.3667 -52.8333 57° Northeast 540 621 38,000  Level Gander Center
02:15AM 54.4000 -52.5667 78° East 540 621 38,000  Level Gander Center
02:16AM 54.4500 -52.3333 70° East 540 621 38,000  Level Gander Center
02:17AM 54.5333 -52.1000 58° Northeast 540 621 38,000  Level Gander Center
02:18AM 54.5333 -51.9833 90° East 540 621 38,000  Level Gander Center
02:19AM 54.6000 -51.7667 62° Northeast 540 621 38,000  Level Gander Center
02:19AM 54.6167 -51.6167 79° East 540 621 38,000  Level Gander Center
02:20AM 54.6500 -51.5333 55° Northeast 540 621 38,000  Level Gander Center
02:21AM 54.7000 -51.2833 71° East 540 621 38,000  Level Gander Center
02:22AM 54.7667 -51.0000 68° East 540 621 38,000  Level Gander Center
02:22AM 54.7833 -50.8833 76° East 550 633 38,000  Level Gander Center
02:23AM 54.8000 -50.7667 76° East 550 633 38,000  Level Gander Center
02:24AM 54.8500 -50.5500 68° East 550 633 38,000  Level Gander Center
02:25AM 54.9167 -50.3000 65° Northeast 540 621 38,000  Level Gander Center
02:26AM 54.9667 -50.0167 73° East 540 621 38,000  Level Gander Center
02:28AM 55.0607 -49.5701 76° East  Level FlightAware Approximate
02:35AM 55.2778 -47.9203 76° East  Level FlightAware Approximate
02:36AM 55.3070 -47.6832 78° East  Level FlightAware Approximate
02:37AM 55.3358 -47.4458 78° East  Level FlightAware Approximate
02:38AM 55.3641 -47.2080 78° East  Level FlightAware Approximate
02:39AM 55.3919 -46.9698 78° East  Level FlightAware Approximate
02:40AM 55.4192 -46.7313 78° East  Level FlightAware Approximate
02:41AM 55.4461 -46.4925 79° East  Level FlightAware Approximate
02:42AM 55.4725 -46.2534 79° East  Level FlightAware Approximate
02:43AM 55.4985 -46.0139 79° East  Level FlightAware Approximate
02:44AM 55.5240 -45.7742 79° East  Level FlightAware Approximate
02:45AM 55.5490 -45.5341 79° East  Level FlightAware Approximate
02:46AM 55.5736 -45.2937 80° East  Level FlightAware Approximate
02:47AM 55.5976 -45.0531 80° East  Level FlightAware Approximate
02:48AM 55.6213 -44.8121 80° East  Level FlightAware Approximate
02:49AM 55.6444 -44.5709 80° East  Level FlightAware Approximate
02:50AM 55.6670 -44.3293 80° East  Level FlightAware Approximate
02:51AM 55.6898 -44.0877 80° East  Level FlightAware Approximate
02:52AM 55.7121 -43.8458 81° East  Level FlightAware Approximate
02:53AM 55.7339 -43.6036 81° East  Level FlightAware Approximate
02:54AM 55.7552 -43.3611 81° East  Level FlightAware Approximate
02:55AM 55.7761 -43.1184 81° East  Level FlightAware Approximate
02:56AM 55.7965 -42.8754 81° East  Level FlightAware Approximate
02:57AM 55.8164 -42.6322 82° East  Level FlightAware Approximate
02:58AM 55.8358 -42.3887 82° East  Level FlightAware Approximate
02:59AM 55.8548 -42.1450 82° East  Level FlightAware Approximate
03:00AM 55.8732 -41.9011 82° East  Level FlightAware Approximate
03:01AM 55.8912 -41.6569 82° East  Level FlightAware Approximate
03:02AM 55.9087 -41.4125 83° East  Level FlightAware Approximate
03:03AM 55.9257 -41.1679 83° East  Level FlightAware Approximate
03:04AM 55.9422 -40.9230 83° East  Level FlightAware Approximate
03:05AM 55.9582 -40.6780 83° East  Level FlightAware Approximate
03:06AM 55.9738 -40.4327 83° East  Level FlightAware Approximate
03:07AM 55.9888 -40.1873 84° East  Level FlightAware Approximate
03:08AM 56.0022 -39.9415 86° East  Level FlightAware Approximate
03:09AM 56.0112 -39.6949 86° East  Level FlightAware Approximate
03:10AM 56.0196 -39.4483 86° East  Level FlightAware Approximate
03:11AM 56.0276 -39.2015 87° East  Level FlightAware Approximate
03:12AM 56.0350 -38.9547 87° East  Level FlightAware Approximate
03:13AM 56.0420 -38.7077 87° East  Level FlightAware Approximate
03:14AM 56.0485 -38.4607 87° East  Level FlightAware Approximate
03:15AM 56.0545 -38.2135 87° East  Level FlightAware Approximate
03:16AM 56.0600 -37.9663 88° East  Level FlightAware Approximate
03:17AM 56.0650 -37.7191 88° East  Level FlightAware Approximate
03:18AM 56.0695 -37.4717 88° East  Level FlightAware Approximate
03:19AM 56.0735 -37.2244 88° East  Level FlightAware Approximate
03:20AM 56.0770 -36.9769 88° East  Level FlightAware Approximate
03:21AM 56.0801 -36.7295 89° East  Level FlightAware Approximate
03:22AM 56.0826 -36.4820 89° East  Level FlightAware Approximate
03:23AM 56.0846 -36.2344 89° East  Level FlightAware Approximate
03:24AM 56.0862 -35.9869 89° East  Level FlightAware Approximate
03:25AM 56.0872 -35.7393 89° East  Level FlightAware Approximate
03:26AM 56.0878 -35.4917 90° East  Level FlightAware Approximate
03:27AM 56.0878 -35.2441 90° East  Level FlightAware Approximate
03:28AM 56.0874 -34.9966 90° East  Level FlightAware Approximate
03:29AM 56.0864 -34.7490 90° East  Level FlightAware Approximate
03:30AM 56.0850 -34.5014 90° East  Level FlightAware Approximate
03:31AM 56.0833 -34.2539 90° East  Level FlightAware Approximate
03:32AM 56.0824 -34.0063 90° East  Level FlightAware Approximate
03:33AM 56.0811 -33.7588 90° East  Level FlightAware Approximate
03:34AM 56.0793 -33.5112 91° East  Level FlightAware Approximate
03:35AM 56.0770 -33.2638 91° East  Level FlightAware Approximate
03:36AM 56.0742 -33.0163 91° East  Level FlightAware Approximate
03:37AM 56.0709 -32.7689 91° East  Level FlightAware Approximate
03:38AM 56.0671 -32.5215 91° East  Level FlightAware Approximate
03:39AM 56.0628 -32.2742 92° East  Level FlightAware Approximate
03:40AM 56.0580 -32.0269 92° East  Level FlightAware Approximate
03:41AM 56.0527 -31.7797 92° East  Level FlightAware Approximate
03:42AM 56.0469 -31.5326 92° East  Level FlightAware Approximate
03:43AM 56.0406 -31.2855 92° East  Level FlightAware Approximate
03:44AM 56.0339 -31.0386 93° East  Level FlightAware Approximate
03:45AM 56.0266 -30.7917 93° East  Level FlightAware Approximate
03:46AM 56.0189 -30.5449 93° East  Level FlightAware Approximate
03:47AM 56.0106 -30.2982 93° East  Level FlightAware Approximate
03:48AM 56.0019 -30.0517 94° East  Level FlightAware Approximate
03:49AM 55.9887 -29.8058 96° East  Level FlightAware Approximate
03:50AM 55.9739 -29.5604 96° East  Level FlightAware Approximate
03:51AM 55.9586 -29.3151 96° East  Level FlightAware Approximate
03:52AM 55.9428 -29.0700 96° East  Level FlightAware Approximate
03:53AM 55.9266 -28.8251 97° East  Level FlightAware Approximate
03:54AM 55.9099 -28.5804 97° East  Level FlightAware Approximate
03:55AM 55.8926 -28.3359 97° East  Level FlightAware Approximate
03:56AM 55.8749 -28.0916 97° East  Level FlightAware Approximate
03:57AM 55.8568 -27.8476 97° East  Level FlightAware Approximate
03:58AM 55.8381 -27.6038 98° East  Level FlightAware Approximate
03:59AM 55.8189 -27.3603 98° East  Level FlightAware Approximate
04:00AM 55.7993 -27.1169 98° East  Level FlightAware Approximate
04:01AM 55.7792 -26.8739 98° East  Level FlightAware Approximate
04:02AM 55.7586 -26.6310 98° East  Level FlightAware Approximate
04:03AM 55.7375 -26.3885 99° East  Level FlightAware Approximate
04:04AM 55.7160 -26.1462 99° East  Level FlightAware Approximate
04:05AM 55.6940 -25.9042 99° East  Level FlightAware Approximate
04:06AM 55.6715 -25.6624 99° East  Level FlightAware Approximate
04:07AM 55.6485 -25.4209 99° East  Level FlightAware Approximate
04:08AM 55.6251 -25.1798 100° East  Level FlightAware Approximate
04:09AM 55.6012 -24.9389 100° East  Level FlightAware Approximate
04:10AM 55.5768 -24.6983 100° East  Level FlightAware Approximate
04:11AM 55.5519 -24.4580 100° East  Level FlightAware Approximate
04:12AM 55.5266 -24.2180 100° East  Level FlightAware Approximate
04:13AM 55.5008 -23.9783 101° East  Level FlightAware Approximate
04:14AM 55.4746 -23.7390 101° East  Level FlightAware Approximate
04:15AM 55.4478 -23.5000 101° East  Level FlightAware Approximate
04:16AM 55.4206 -23.2612 101° East  Level FlightAware Approximate
04:17AM 55.3930 -23.0229 101° East  Level FlightAware Approximate
04:18AM 55.3649 -22.7848 102° East  Level FlightAware Approximate
04:19AM 55.3364 -22.5471 102° East  Level FlightAware Approximate
04:20AM 55.3075 -22.3097 102° East  Level FlightAware Approximate
04:21AM 55.2782 -22.0726 102° East  Level FlightAware Approximate
04:22AM 55.2484 -21.8359 102° East  Level FlightAware Approximate
04:23AM 55.2181 -21.5995 103° East  Level FlightAware Approximate
04:24AM 55.1874 -21.3635 103° East  Level FlightAware Approximate
04:25AM 55.1562 -21.1279 103° East  Level FlightAware Approximate
04:26AM 55.1246 -20.8926 103° East  Level FlightAware Approximate
04:27AM 55.0925 -20.6578 103° East  Level FlightAware Approximate
04:28AM 55.0600 -20.4233 104° East  Level FlightAware Approximate
04:29AM 55.0270 -20.1891 104° East  Level FlightAware Approximate
04:30AM 54.9945 -19.9550 102° East  Level FlightAware Approximate
04:31AM 54.9654 -19.7197 102° East  Level FlightAware Approximate
04:32AM 54.9359 -19.4847 102° East  Level FlightAware Approximate
04:33AM 54.9059 -19.2501 102° East  Level FlightAware Approximate
04:34AM 54.8755 -19.0158 103° East  Level FlightAware Approximate
04:35AM 54.8446 -18.7819 103° East  Level FlightAware Approximate
04:36AM 54.8133 -18.5483 103° East  Level FlightAware Approximate
04:37AM 54.7815 -18.3151 103° East  Level FlightAware Approximate
04:38AM 54.7493 -18.0823 103° East  Level FlightAware Approximate
04:39AM 54.7167 -17.8499 104° East  Level FlightAware Approximate
04:40AM 54.6836 -17.6178 104° East  Level FlightAware Approximate
04:40AM 53.8650 -14.2330 104° East 531 611 38,000  Level FlightAware
04:41AM 54.6500 -17.3861 104° East  Level FlightAware Approximate
04:41AM 53.8420 -14.0890 105° East 533 613 38,000  Level FlightAware
04:41AM 53.8190 -13.9450 105° East 534 615 38,000  Level FlightAware
04:42AM 53.8010 -13.8280 105° East 534 615 38,000  Level FlightAware
04:43AM 53.7730 -13.5790 101° East 538 619 38,000  Level FlightAware
04:44AM 53.7570 -13.3440 96° East 537 618 38,000  Level FlightAware
04:44AM 53.7480 -13.1970 96° East 535 616 38,000  Level FlightAware
04:45AM 53.7350 -13.0050 96° East 536 617 38,000  Level FlightAware
04:45AM 53.7290 -12.9200 97° East 536 617 38,000  Level FlightAware
04:46AM 53.7130 -12.6900 97° East 536 617 38,000  Level FlightAware
04:47AM 53.6970 -12.4850 97° East 537 618 38,000  Level FlightAware
04:48AM 53.6850 -12.3170 97° East 535 616 38,000 -780 Level FlightAware
04:49AM 53.6710 -12.1440 98° East 538 619 37,000 -1,320 Descending FlightAware
04:49AM 53.6610 -11.9770 96° East 536 617 36,300 -1,200 Descending FlightAware
04:50AM 53.6540 -11.8690 96° East 536 617 35,700 -1,200 Descending FlightAware
04:50AM 53.6430 -11.7050 96° East 541 623 35,000 -540 Descending FlightAware
04:51AM 53.6250 -11.5190 99° East 538 619 35,000  Level FlightAware
04:52AM 53.6010 -11.3780 106° East 538 619 35,000  Level FlightAware
04:52AM 53.5680 -11.2300 111° Southeast 535 616 35,000  Level FlightAware
04:53AM 53.5160 -10.9920 110° East 534 615 35,000  Level FlightAware
04:54AM 53.4720 -10.7950 110° East 532 612 35,000  Level FlightAware
04:55AM 53.4240 -10.5830 111° Southeast 531 611 35,000  Level FlightAware
04:57AM 53.3470 -10.2440 111° Southeast 532 612 35,000  Level FlightAware
04:57AM 53.3150 -10.1070 111° Southeast 531 611 35,000  Level FlightAware
04:58AM 53.2830 -9.9710 111° Southeast 532 612 35,000  Level FlightAware
04:58AM 53.2570 -9.8590 111° Southeast 531 611 35,000  Level FlightAware
04:59AM 53.2200 -9.7010 111° Southeast 531 611 35,000  Level FlightAware
05:00AM 53.1850 -9.5530 111° Southeast 530 610 35,000  Level FlightAware
05:00AM 53.1480 -9.3970 112° Southeast 529 609 35,000  Level FlightAware
05:01AM 53.1140 -9.2570 112° Southeast 528 608 35,000  Level FlightAware
05:01AM 53.0820 -9.1260 112° Southeast 527 606 35,000 -1,260 Level FlightAware
05:02AM 53.0458 -8.9762 112° Southeast 478 550 33,500 -1,800 Descending FlightAware UK
05:02AM 53.0295 -8.9088 112° Southeast 478 550 33,500  Level FlightAware UK
05:03AM 53.0130 -8.8414 112° Southeast 478 550 33,500  Level FlightAware UK
05:03AM 52.9963 -8.7740 112° Southeast 480 552 33,500  Level FlightAware UK
05:03AM 52.9797 -8.7067 112° Southeast 480 552 33,500 3,900 Level FlightAware UK
05:03AM 52.9810 -8.7110 112° Southeast 524 603 35,000  Climbing FlightAware
05:04AM 52.9577 -8.6169 112° Southeast 480 552 33,500 -2,460 Descending FlightAware UK
05:04AM 52.9410 -8.5500 112° Southeast 480 552 33,500  Level FlightAware UK
05:04AM 52.9243 -8.4832 113° Southeast 482 555 33,500 3,180 Level FlightAware UK
05:04AM 52.9190 -8.4630 113° Southeast 522 601 35,000  Climbing FlightAware
05:05AM 52.8962 -8.3713 113° Southeast 478 550 33,500  Descending FlightAware UK
05:05AM 52.8910 -8.3510 113° Southeast 521 600 35,000  Climbing FlightAware
05:05AM 52.8683 -8.2607 113° Southeast 478 550 33,500  Descending FlightAware UK
05:05AM 52.8580 -8.2220 113° Southeast 522 601 35,000  Climbing FlightAware
05:06AM 52.8402 -8.1505 113° Southeast 480 552 33,500  Descending FlightAware UK
05:06AM 52.8290 -8.1070 113° Southeast 520 598 35,000  Climbing FlightAware
05:06AM 52.8121 -8.0401 113° Southeast 480 552 33,500 -3,120 Descending FlightAware UK
05:07AM 52.7952 -7.9738 113° Southeast 478 550 33,300 2,040 Descending FlightAware UK
05:07AM 52.7850 -7.9350 113° Southeast 531 611 34,700 -1,020 Climbing FlightAware
05:07AM 52.7782 -7.9074 113° Southeast 482 555 33,000 -6,360 Descending FlightAware UK
05:07AM 52.7611 -7.8406 113° Southeast 482 555 32,700 -1,020 Descending FlightAware UK
05:07AM 52.7439 -7.7740 113° Southeast 476 548 32,400 -1,020 Descending FlightAware UK
05:08AM 52.7267 -7.7076 113° Southeast 472 543 32,100 2,520 Descending FlightAware UK
05:08AM 52.7230 -7.6940 113° Southeast 517 595 33,600 -1,020 Climbing FlightAware
05:08AM 52.6981 -7.5975 113° Southeast 466 536 31,600 -1,020 Descending FlightAware UK
05:08AM 52.6950 -7.5870 113° Southeast 514 592 33,100 -240 Climbing FlightAware
05:09AM 52.6698 -7.4893 113° Southeast 470 541 31,500 -2,580 Descending FlightAware UK
05:09AM 52.6527 -7.4239 113° Southeast 478 550 31,500 4,500 Level FlightAware UK
05:09AM 52.6550 -7.4310 113° Southeast 528 608 33,000  Climbing FlightAware
05:09AM 52.6355 -7.3578 113° Southeast 482 555 31,500 -2,700 Descending FlightAware UK
05:10AM 52.6180 -7.2909 113° Southeast 482 555 31,500 3,060 Level FlightAware UK
05:10AM 52.6130 -7.2730 113° Southeast 533 613 33,000  Climbing FlightAware
05:10AM 52.5885 -7.1794 113° Southeast 484 557 31,500 -2,460 Descending FlightAware UK
05:10AM 52.5707 -7.1119 114° Southeast 484 557 31,500 2,880 Level FlightAware UK
05:11AM 52.5670 -7.0990 114° Southeast 533 613 33,000  Climbing FlightAware
05:11AM 52.5409 -7.0007 114° Southeast 484 557 31,500 -2,580 Descending FlightAware UK
05:11AM 52.5232 -6.9340 114° Southeast 484 557 31,500 2,700 Level FlightAware UK
05:11AM 52.5110 -6.8870 114° Southeast 534 615 33,000  Climbing FlightAware
05:12AM 52.5053 -6.8674 114° Southeast 484 557 31,500 -6,000 Descending FlightAware UK
05:12AM 52.4933 -6.8231 114° Southeast 484 557 31,500  Level FlightAware UK
05:12AM 52.4754 -6.7566 114° Southeast 484 557 31,500 2,520 Level FlightAware UK
05:12AM 52.4620 -6.7080 114° Southeast 533 613 33,000  Climbing FlightAware
05:12AM 52.4574 -6.6902 114° Southeast 484 557 31,500 -4,740 Descending FlightAware UK
05:13AM 52.4395 -6.6237 114° Southeast 484 557 31,500 2,640 Level FlightAware UK
05:13AM 52.4280 -6.5820 114° Southeast 534 615 33,000  Climbing FlightAware
05:13AM 52.4034 -6.4911 114° Southeast 486 559 31,500  Descending FlightAware UK
05:13AM 52.3940 -6.4570 114° Southeast 532 612 33,000  Climbing FlightAware
05:14AM 52.3732 -6.3811 114° Southeast 486 559 31,500 -2,760 Descending FlightAware UK
05:14AM 52.3551 -6.3154 114° Southeast 484 557 31,500 4,500 Level FlightAware UK
05:14AM 52.3560 -6.3180 114° Southeast 531 611 33,000  Climbing FlightAware
05:14AM 52.3370 -6.2498 114° Southeast 484 557 31,500 -2,700 Descending FlightAware UK
05:15AM 52.3188 -6.1841 114° Southeast 484 557 31,500 3,060 Level FlightAware UK
05:15AM 52.3120 -6.1600 114° Southeast 531 611 33,000  Climbing FlightAware
05:15AM 52.2886 -6.0749 114° Southeast 482 555 31,500 -2,460 Descending FlightAware UK
05:15AM 52.2704 -6.0093 114° Southeast 484 557 31,500 4,260 Level FlightAware UK
05:15AM 52.2710 -6.0120 114° Southeast 531 611 33,000  Climbing FlightAware
05:16AM 52.2519 -5.9432 114° Southeast 484 557 31,500 -2,760 Descending FlightAware UK
05:16AM 52.2336 -5.8778 115° Southeast 486 559 31,500 4,500 Level FlightAware UK
05:16AM 52.2350 -5.8820 115° Southeast 530 610 33,000  Climbing FlightAware
05:16AM 52.2152 -5.8125 115° Southeast 486 559 31,500 -2,700 Descending FlightAware UK
05:17AM 52.1993 -5.7460 111° Southeast 484 557 31,500  Level FlightAware UK
05:17AM 52.1844 -5.6791 110° East 484 557 31,500  Level FlightAware UK
05:17AM 52.1700 -5.6117 109° East 484 557 31,500  Level FlightAware UK
05:18AM 52.1556 -5.5446 109° East 488 562 31,500 3,600 Level FlightAware UK
05:18AM 52.1520 -5.5300 109° East 525 604 33,000  Climbing FlightAware
05:18AM 52.1360 -5.4557 109° East 484 557 31,500 -2,580 Descending FlightAware UK
05:18AM 52.1211 -5.3891 110° East 486 559 31,500  Level FlightAware UK
05:19AM 52.1059 -5.3227 110° East 484 557 31,500 3,600 Level FlightAware UK
05:19AM 52.1030 -5.3100 110° East 525 604 33,000  Climbing FlightAware
05:19AM 52.0854 -5.2344 110° East 484 557 31,500 -2,580 Descending FlightAware UK
05:19AM 52.0700 -5.1683 111° Southeast 484 557 31,500  Level FlightAware UK
05:20AM 52.0546 -5.1020 111° Southeast 484 557 31,500  Level FlightAware UK
05:20AM 52.0336 -5.0137 111° Southeast 484 557 31,500 2,400 Level FlightAware UK
05:20AM 52.0230 -4.9720 111° Southeast 526 605 33,000  Climbing FlightAware
05:20AM 52.0070 -4.9028 111° Southeast 484 557 31,500  Descending FlightAware UK
05:21AM 51.9970 -4.8620 111° Southeast 526 605 33,000  Climbing FlightAware
05:21AM 51.9808 -4.7927 111° Southeast 484 557 31,500 -2,220 Descending FlightAware UK
05:21AM 51.9598 -4.7047 111° Southeast 484 557 31,500 2,700 Level FlightAware UK
05:21AM 51.9560 -4.6870 111° Southeast 525 604 33,000  Climbing FlightAware
05:22AM 51.9388 -4.6170 111° Southeast 486 559 31,500  Descending FlightAware UK
05:22AM 51.9200 -4.5390 111° Southeast 524 603 33,000  Climbing FlightAware
05:23AM 51.8968 -4.4418 111° Southeast 484 557 31,500  Descending FlightAware UK
05:23AM 51.8850 -4.3930 111° Southeast 525 604 33,000  Climbing FlightAware
05:23AM 51.8645 -4.3109 111° Southeast 482 555 31,500  Descending FlightAware UK
05:23AM 51.8520 -4.2620 111° Southeast 526 605 33,000 3,180 Climbing FlightAware
05:24AM 51.8400 -4.2146 112° Southeast 527 606 33,000 -2,400 Level FlightAware ADS-B
05:24AM 51.8150 -4.1149 112° Southeast 482 555 31,500  Descending FlightAware UK
05:24AM 51.8130 -4.1090 112° Southeast 528 608 33,000  Climbing FlightAware
05:25AM 51.7876 -4.0053 112° Southeast 482 555 31,500  Descending FlightAware UK
05:25AM 51.7840 -3.9920 112° Southeast 530 610 33,000  Climbing FlightAware
05:25AM 51.7601 -3.8953 112° Southeast 482 555 31,500  Descending FlightAware UK
05:25AM 51.7470 -3.8440 112° Southeast 533 613 33,000  Climbing FlightAware
05:26AM 51.7154 -3.7183 112° Southeast 482 555 31,500  Descending FlightAware UK
05:26AM 51.7160 -3.7200 112° Southeast 536 617 33,000  Climbing FlightAware
05:26AM 51.6879 -3.6063 112° Southeast 482 555 31,500  Descending FlightAware UK
05:26AM 51.6830 -3.5790 112° Southeast 535 616 33,000 -300 Climbing FlightAware
05:27AM 51.6713 -3.5147 112° Southeast 482 555 31,400 -3,360 Descending FlightAware UK
05:27AM 51.6597 -3.4465 105° East 480 552 31,100 3,000 Descending FlightAware UK
05:27AM 51.6580 -3.4330 105° East 527 606 32,600 2,460 Climbing FlightAware
05:27AM 51.6460 -3.3572 104° East 528 608 32,100 -3,420 Descending FlightAware ADS-B
05:28AM 51.6285 -3.2417 104° East 472 543 29,900 -1,320 Descending FlightAware UK
05:28AM 51.6243 -3.2130 104° East 510 587 31,300 -1,500 Climbing FlightAware ADS-B
05:28AM 51.6153 -3.1536 104° East 456 525 29,300 -1,620 Descending FlightAware UK
05:29AM 51.6080 -3.1038 104° East 495 570 30,500 -1,920 Climbing FlightAware ADS-B
05:29AM 51.5901 -2.9834 104° East 444 511 27,800 -1,740 Descending FlightAware UK
05:29AM 51.5843 -2.9455 104° East 478 550 29,200  Climbing FlightAware ADS-B
05:30AM 51.5684 -2.8381 103° East 479 551 27,800 -4,440 Descending FlightAware ADS-B
05:30AM 51.5594 -2.7771 103° East 430 495 25,600 -2,280 Descending FlightAware UK
05:30AM 51.5521 -2.7277 103° East 477 549 26,600 -2,640 Climbing FlightAware ADS-B
05:31AM 51.5439 -2.6725 103° East 428 493 24,300 -2,820 Descending FlightAware UK
05:31AM 51.5365 -2.6231 103° East 480 552 25,200 -300 Climbing FlightAware ADS-B
05:31AM 51.5203 -2.5157 104° East 475 547 24,100 -2,100 Descending FlightAware ADS-B
05:32AM 51.5040 -2.4084 104° East 464 534 23,000 -1,920 Descending FlightAware ADS-B
05:32AM 51.4871 -2.2990 104° East 437 503 22,000 -2,160 Descending FlightAware ADS-B
05:33AM 51.4731 -2.2074 104° East 423 487 20,700 -2,340 Descending FlightAware ADS-B
05:34AM 51.4584 -2.1118 104° East 413 475 19,600 -2,220 Descending FlightAware ADS-B
05:34AM 51.4444 -2.0219 104° East 404 465 18,400 -2,160 Descending FlightAware ADS-B
05:35AM 51.4274 -1.9141 104° East 400 460 17,200 -3,600 Descending FlightAware ADS-B
05:35AM 51.4198 -1.8652 104° East 356 410 15,200 -1,800 Descending FlightAware UK
05:35AM 51.4139 -1.8288 104° East 395 455 16,300 -1,680 Climbing FlightAware ADS-B
05:36AM 51.4035 -1.7631 104° East 350 403 14,200 -1,560 Descending FlightAware UK
05:36AM 51.4004 -1.7432 104° East 392 451 15,500 -1,800 Climbing FlightAware ADS-B
05:36AM 51.3929 -1.6960 104° East 348 400 13,500 -1,740 Descending FlightAware UK
05:36AM 51.3844 -1.6432 104° East 388 447 14,500 -1,680 Climbing FlightAware ADS-B
05:37AM 51.3768 -1.5960 104° East 344 396 12,500 -780 Descending FlightAware UK
05:37AM 51.3669 -1.5341 104° East 386 444 14,000  Climbing FlightAware ADS-B
05:37AM 51.3571 -1.4676 104° East 340 391 12,500  Descending FlightAware UK
05:37AM 51.3551 -1.4532 104° East 372 428 14,000 2,640 Climbing FlightAware ADS-B
05:38AM 51.3441 -1.3770 103° East 378 435 14,000 -2,160 Level FlightAware ADS-B
05:38AM 51.3360 -1.3217 103° East 344 396 12,300 -600 Descending FlightAware UK
05:38AM 51.3318 -1.2949 103° East 371 427 13,700 1,440 Climbing FlightAware ADS-B
05:39AM 51.3200 -1.2164 103° East 357 411 13,300 -900 Descending FlightAware ADS-B
05:39AM 51.3166 -1.1894 101° East 350 403 13,100 -1,140 Descending FlightAware ADS-B
05:39AM 51.3135 -1.1480 97° East 341 392 12,800 -3,840 Descending FlightAware ADS-B
05:40AM 51.3125 -1.1056 97° East 306 352 11,000 -960 Descending FlightAware UK
05:40AM 51.3122 -1.0693 97° East 329 379 12,300 -840 Climbing FlightAware ADS-B
05:40AM 51.3116 -1.0185 97° East 294 338 10,500 -600 Descending FlightAware UK
05:40AM 51.3114 -0.9963 97° East 312 359 12,000 2,160 Climbing FlightAware ADS-B
05:41AM 51.3109 -0.9306 91° East 289 333 12,000 -1,860 Level FlightAware ADS-B
05:41AM 51.3107 -0.8876 91° East 262 302 10,500  Descending FlightAware UK
05:41AM 51.3104 -0.8659 91° East 286 329 12,000 2,160 Climbing FlightAware ADS-B
05:42AM 51.3098 -0.8027 91° East 285 328 12,000 -300 Level FlightAware ADS-B
05:42AM 51.3090 -0.7385 91° East 288 331 11,700 -600 Descending FlightAware ADS-B
05:43AM 51.3082 -0.6753 91° East 282 325 11,400 -600 Descending FlightAware ADS-B
05:43AM 51.3074 -0.6127 91° East 280 322 11,100 -2,580 Descending FlightAware ADS-B
05:44AM 51.3067 -0.5733 91° East 256 295 9,300 -780 Descending FlightAware UK
05:44AM 51.3065 -0.5505 91° East 277 319 10,700 1,500 Climbing FlightAware ADS-B
05:44AM 51.3055 -0.4862 91° East 275 316 10,400 -2,520 Descending FlightAware ADS-B
05:45AM 51.3050 -0.4514 91° East 254 292 8,700 -540 Descending FlightAware UK
05:45AM 51.3056 -0.4387 91° East 275 316 10,200 2,460 Climbing FlightAware ADS-B
05:45AM 51.3084 -0.3889 85° East 273 314 10,000 -420 Descending FlightAware ADS-B
05:45AM 51.3084 -0.3780 90° East 272 313 10,000  Level FlightAware ADS-B
05:45AM 51.3080 -0.3713 95° East 273 314 10,000  Level FlightAware ADS-B
05:46AM 51.3067 -0.3618 102° East 274 315 10,000  Level FlightAware ADS-B
05:46AM 51.3046 -0.3531 111° Southeast 276 318 10,000  Level FlightAware ADS-B
05:46AM 51.3029 -0.3476 116° Southeast 277 319 10,000 -900 Level FlightAware ADS-B
05:46AM 51.3008 -0.3425 123° Southeast 278 320 9,900 -900 Descending FlightAware ADS-B
05:46AM 51.2969 -0.3348 129° Southeast 279 321 9,900  Level FlightAware ADS-B
05:46AM 51.2934 -0.3294 136° Southeast 279 321 9,900 -600 Level FlightAware ADS-B
05:46AM 51.2872 -0.3222 144° Southeast 277 319 9,800 -600 Descending FlightAware ADS-B
05:46AM 51.2829 -0.3187 153° Southeast 276 318 9,800 -360 Level FlightAware ADS-B
05:46AM 51.2664 -0.3124 167° South 269 310 9,700 -360 Descending FlightAware ADS-B
05:46AM 51.2614 -0.3125 181° South 266 306 9,700 -720 Level FlightAware ADS-B
05:46AM 51.2556 -0.3138 188° South 260 299 9,600 -720 Descending FlightAware ADS-B
05:46AM 51.2511 -0.3159 196° South 258 297 9,600 -600 Level FlightAware ADS-B
05:47AM 51.2437 -0.3214 205° Southwest 254 292 9,500 -600 Descending FlightAware ADS-B
05:47AM 51.2405 -0.3250 215° Southwest 247 284 9,500 -720 Level FlightAware ADS-B
05:47AM 51.2360 -0.3317 223° Southwest 243 280 9,400 -720 Descending FlightAware ADS-B
05:47AM 51.2334 -0.3373 234° Southwest 240 276 9,400 -720 Level FlightAware ADS-B
05:47AM 51.2309 -0.3447 242° Southwest 237 273 9,300 -780 Descending FlightAware ADS-B
05:47AM 51.2296 -0.3503 249° West 235 270 9,300  Level FlightAware ADS-B
05:47AM 51.2288 -0.3553 256° West 234 269 9,300 -780 Level FlightAware ADS-B
05:47AM 51.2281 -0.3627 261° West 232 267 9,200 -780 Descending FlightAware ADS-B
05:47AM 51.2281 -0.3678 270° West 231 266 9,200 -900 Level FlightAware ADS-B
05:47AM 51.2286 -0.3759 276° West 231 266 9,100 -720 Descending FlightAware ADS-B
05:47AM 51.2299 -0.3838 285° West 231 266 9,100 -480 Level FlightAware ADS-B
05:47AM 51.2336 -0.3954 297° West 233 268 9,000 -600 Descending FlightAware ADS-B
05:47AM 51.2359 -0.4004 307° West 234 269 9,000  Level FlightAware ADS-B
05:47AM 51.2388 -0.4054 313° West 235 270 9,000  Level FlightAware ADS-B
05:48AM 51.2429 -0.4106 322° Northwest 236 272 9,000 -600 Level FlightAware ADS-B
05:48AM 51.2477 -0.4150 330° Northwest 239 275 8,900 -780 Descending FlightAware ADS-B
05:48AM 51.2508 -0.4169 339° North 240 276 8,900  Level FlightAware ADS-B
05:48AM 51.2549 -0.4185 346° North 241 277 8,900  Level FlightAware ADS-B
05:48AM 51.2585 -0.4192 353° North 242 278 8,900  Level FlightAware ADS-B
05:48AM 51.2661 -0.4194 359° North 243 280 8,900 -840 Level FlightAware ADS-B
05:48AM 51.2751 -0.4190 North 243 280 8,700 -1,020 Descending FlightAware ADS-B
05:48AM 51.2793 -0.4181 North 244 281 8,700  Level FlightAware ADS-B
05:48AM 51.2848 -0.4158 15° North 248 285 8,700 -780 Level FlightAware ADS-B
05:48AM 51.2880 -0.4138 21° North 249 287 8,600 -900 Descending FlightAware ADS-B
05:48AM 51.2920 -0.4107 26° Northeast 251 289 8,600  Level FlightAware ADS-B
05:48AM 51.2958 -0.4069 32° Northeast 253 291 8,600  Level FlightAware ADS-B
05:48AM 51.2994 -0.4021 39° Northeast 256 295 8,600 -600 Level FlightAware ADS-B
05:49AM 51.3047 -0.3928 48° Northeast 259 298 8,500 -600 Descending FlightAware ADS-B
05:49AM 51.3074 -0.3865 56° Northeast 261 300 8,500 -600 Level FlightAware ADS-B
05:49AM 51.3165 -0.3600 61° Northeast 263 303 8,300 -780 Descending FlightAware ADS-B
05:49AM 51.3259 -0.3313 62° Northeast 266 306 8,100 -660 Descending FlightAware ADS-B
05:49AM 51.3323 -0.3110 63° Northeast 264 304 8,000 -600 Descending FlightAware ADS-B
05:50AM 51.3380 -0.2936 62° Northeast 261 300 7,900 -660 Descending FlightAware ADS-B
05:50AM 51.3486 -0.2634 61° Northeast 261 300 7,700 -720 Descending FlightAware ADS-B
05:50AM 51.3589 -0.2334 61° Northeast 260 299 7,500 -600 Descending FlightAware ADS-B
05:50AM 51.3672 -0.2078 63° Northeast 259 298 7,400 -600 Descending FlightAware ADS-B
05:51AM 51.3755 -0.1816 63° Northeast 258 297 7,200 -600 Descending FlightAware ADS-B
05:51AM 51.3839 -0.1558 62° Northeast 249 287 7,100 -600 Descending FlightAware ADS-B
05:51AM 51.3920 -0.1318 62° Northeast 243 280 6,900 -840 Descending FlightAware ADS-B
05:51AM 51.4001 -0.1073 62° Northeast 237 273 6,700 -840 Descending FlightAware ADS-B
05:52AM 51.4040 -0.0959 61° Northeast 230 265 6,600 -480 Descending FlightAware ADS-B
05:52AM 51.4071 -0.0881 57° Northeast 221 254 6,600 -600 Level FlightAware ADS-B
05:52AM 51.4102 -0.0822 50° Northeast 214 246 6,500 -1,380 Descending FlightAware ADS-B
05:52AM 51.4131 -0.0777 44° Northeast 210 242 6,400 -1,200 Descending FlightAware ADS-B
05:52AM 51.4177 -0.0727 34° Northeast 205 236 6,300 -1,380 Descending FlightAware ADS-B
05:52AM 51.4211 -0.0701 25° Northeast 203 234 6,200 -1,800 Descending FlightAware ADS-B
05:52AM 51.4260 -0.0676 18° North 199 229 6,000 -1,800 Descending FlightAware ADS-B
05:52AM 51.4299 -0.0664 10° North 197 227 5,900 -1,740 Descending FlightAware ADS-B
05:52AM 51.4324 -0.0660 North 195 224 5,800 -1,380 Descending FlightAware ADS-B
05:52AM 51.4372 -0.0660 360° North 191 220 5,700 -1,500 Descending FlightAware ADS-B
05:52AM 51.4428 -0.0672 352° North 188 216 5,500 -1,500 Descending FlightAware ADS-B
05:52AM 51.4476 -0.0696 343° North 187 215 5,400 -1,500 Descending FlightAware ADS-B
05:53AM 51.4525 -0.0735 333° Northwest 185 213 5,200 -1,680 Descending FlightAware ADS-B
05:53AM 51.4559 -0.0771 326° Northwest 183 211 5,100 -1,200 Descending FlightAware ADS-B
05:53AM 51.4593 -0.0818 320° Northwest 181 208 5,000 -1,380 Descending FlightAware ADS-B
05:53AM 51.4612 -0.0849 314° West 181 208 4,900 -1,500 Descending FlightAware ADS-B
05:53AM 51.4637 -0.0899 309° West 180 207 4,800 -1,500 Descending FlightAware ADS-B
05:53AM 51.4655 -0.0941 305° West 179 206 4,700 -1,380 Descending FlightAware ADS-B
05:53AM 51.4715 -0.1099 301° West 178 205 4,400 -1,440 Descending FlightAware ADS-B
05:53AM 51.4741 -0.1177 298° West 175 201 4,200 -1,200 Descending FlightAware ADS-B
05:53AM 51.4749 -0.1216 288° West 173 199 4,200 -1,200 Level FlightAware ADS-B
05:53AM 51.4758 -0.1299 280° West 174 200 4,000 -1,560 Descending FlightAware ADS-B
05:54AM 51.4764 -0.1556 272° West 174 200 3,500 -1,200 Descending FlightAware ADS-B
05:54AM 51.4767 -0.1691 272° West 171 197 3,400 -900 Descending FlightAware ADS-B
05:54AM 51.4782 -0.1914 276° West 176 203 3,100 -3,600 Descending FlightAware ADS-B
05:55AM 51.4785 -0.2180 276° West 186 214 1,200 -900 Descending FlightAware UK
05:55AM 51.4780 -0.2310 276° West 177 204 2,600 -1,020 Climbing FlightAware
05:55AM 51.4777 -0.2648 276° West 188 216 600 -600 Descending FlightAware UK
05:55AM 51.4780 -0.2640 276° West 171 197 2,200 1,620 Climbing FlightAware
05:56AM 51.4780 -0.2900 270° West 161 185 1,800 -1,200 Descending FlightAware
05:56AM 51.4780 -0.3450 270° West 138 159 1,100 -1,140 Descending FlightAware
05:57AM 51.4780 -0.3750 270° West 132 152 700 -540 Descending FlightAware
05:57AM 51.4780 -0.3870 270° West 134 154 700  Level FlightAware